Nie jesteś zalogowany.
Jeśli nie posiadasz konta, zarejestruj je już teraz! Pozwoli Ci ono w pełni korzystać z naszego serwisu. Spamerom dziękujemy!

Ogłoszenie

Prosimy o pomoc dla małej Julki — przekaż 1% podatku na Fundacji Dzieciom zdazyć z Pomocą.
Więcej informacji na dug.net.pl/pomagamy/.

Debian Users Gang

Wątek Odpowiedzi Wyświetlenia Ostatni post
Ten wątek jest zamknięty
77 94786 2010-10-01 15:33:34 przez milyges
3 9331 2010-09-28 17:35:52 przez SpeedVin
Odzysk postów przez Bodzio
23 30407 2010-09-26 22:46:21 przez winnetou
1 7371 2010-09-25 19:29:15 przez ilin
11 15067 2010-08-03 22:31:44 przez ArnVaker
6 10900 2010-08-03 08:54:25 przez DadaD
17 22477 2010-07-19 23:25:09 przez azhag
--- ZLOT DUG 2010 --- przez BiExi  [ 1 2 3 ]
50 62035 2010-07-09 14:51:35 przez mati75
22 27589 2010-07-03 12:08:41 przez johny
Szóste urodziny DUG-a przez azhag
21 22486 2010-04-17 12:29:03 przez siarka2107
coś Wam się pokiełbasiło :) przez janosik  [ 1 2 ]
32 36611 2010-04-06 12:49:04 przez Derson5
Logo DUG przez BiExi  [ 1 2 3 … 5 ]
119 132559 2010-04-03 10:49:48 przez azhag
SVN - na nowym serwerze przez MrWarum
4 8810 2010-04-02 23:30:26 przez sebcioz
[Prima aprilis] Zmiana profilu DUG-a przez azhag  [ 1 2 3 ]
55 55809 2010-04-02 10:39:54 przez Yampress
7 10088 2010-04-02 09:30:35 przez Yampress
8 10800 2010-03-24 03:58:48 przez sidjestgit
6 9016 2010-03-15 17:50:58 przez azhag
8 10883 2010-03-13 15:21:24 przez debianus_userus
Łał! przez AgayKhan  [ 1 2 3 … 11 ]
252 220834 2010-03-12 07:33:00 przez paoolo
10 11017 2010-03-10 22:06:15 przez Piotr3ks
Ten wątek jest zamknięty
520 423351 2010-03-10 10:06:33 przez azhag
ten poradnik nie dziala przez sidjestgit  [ 1 2 ]
43 49002 2010-01-29 23:38:43 przez ArnVaker
RSS przez TBH
15 15758 2010-01-05 21:28:11 przez urug
0 5548 2009-12-29 21:38:06 przez BiExi
Nowy portal DUG przez azhag  [ 1 2 ]
33 35854 2009-12-19 22:40:35 przez winnetou
Potrzebny banerek :) przez azhag  [ 1 2 3 … 6 ]
136 107524 2009-12-13 22:12:59 przez paoolo
Sto lat "Trinkowania" przez sidjestgit
16 17853 2009-11-11 20:57:18 przez fnmirk
Mini Zlot :) przez Tech  [ 1 2 3 … 7 ]
167 137825 2009-10-31 03:05:53 przez cyryllo
11 12558 2009-09-21 12:00:53 przez ba10
Wirtualizacja przez jumanji
5 8607 2009-09-05 21:31:45 przez thalcave

Stopka forum

Powered by PunBB
© Copyright 2002–2005 Rickard Andersson
To nie jest tylko forum, to nasza mała ojczyzna ;-)